createdAt,value
2023-01-03T00:01:49.461Z,8.60
2023-01-03T00:04:22.448Z,8.50
2023-01-03T00:06:55.239Z,8.50
2023-01-03T00:09:27.961Z,8.50
2023-01-03T00:12:19.152Z,8.50
2023-01-03T00:14:51.945Z,8.50
2023-01-03T00:17:25.213Z,8.50
2023-01-03T00:19:58.056Z,8.50
2023-01-03T00:22:33.803Z,8.50
2023-01-03T00:25:06.871Z,8.50
2023-01-03T00:27:39.579Z,8.50
2023-01-03T00:30:13.497Z,8.50
2023-01-03T00:32:46.259Z,8.40
2023-01-03T00:35:19.414Z,8.40
2023-01-03T00:37:53.865Z,8.40
2023-01-03T00:40:27.096Z,8.40
2023-01-03T00:43:18.482Z,8.30
2023-01-03T00:45:51.255Z,8.40
2023-01-03T00:48:24.203Z,8.30
2023-01-03T00:50:57.142Z,8.30
2023-01-03T00:53:29.918Z,8.30
2023-01-03T00:56:05.133Z,8.30
2023-01-03T00:58:38.878Z,8.30
2023-01-03T01:01:29.766Z,8.30
2023-01-03T01:04:30.794Z,8.20
2023-01-03T01:07:04.496Z,8.30
2023-01-03T01:09:38.165Z,8.30
2023-01-03T01:12:10.852Z,8.30
2023-01-03T01:14:43.601Z,8.30
2023-01-03T01:17:22.246Z,8.40
2023-01-03T01:19:55.565Z,8.40
2023-01-03T01:22:28.187Z,8.40
2023-01-03T01:25:01.373Z,8.40
2023-01-03T01:27:34.083Z,8.40
2023-01-03T01:30:07.407Z,8.40
2023-01-03T01:32:40.081Z,8.40
2023-01-03T01:35:12.742Z,8.40
2023-01-03T01:37:45.433Z,8.50
2023-01-03T01:40:19.075Z,8.40
2023-01-03T01:43:10.422Z,8.40
2023-01-03T01:45:45.862Z,8.40
2023-01-03T01:48:18.570Z,8.40
2023-01-03T01:50:56.429Z,8.30
2023-01-03T01:53:33.214Z,8.30
2023-01-03T01:56:20.678Z,8.20
2023-01-03T01:58:55.125Z,8.20
2023-01-03T02:01:28.778Z,8.20
2023-01-03T02:04:11.895Z,8.20
2023-01-03T02:06:44.659Z,8.20
2023-01-03T02:09:18.043Z,8.20
2023-01-03T02:12:13.240Z,8.20
2023-01-03T02:15:30.016Z,8.30
2023-01-03T02:18:46.679Z,8.30
2023-01-03T02:22:00.127Z,8.30
2023-01-03T02:24:47.906Z,8.40
2023-01-03T02:28:11.583Z,8.30
2023-01-03T02:30:49.688Z,8.40
2023-01-03T02:33:40.002Z,8.30
2023-01-03T02:36:46.155Z,8.30
2023-01-03T02:39:48.151Z,8.20
2023-01-03T02:43:01.491Z,8.20
2023-01-03T02:45:58.517Z,8.20
2023-01-03T02:48:51.016Z,8.20
2023-01-03T02:51:35.436Z,8.20
2023-01-03T02:54:11.869Z,8.20
2023-01-03T02:56:50.094Z,8.10
2023-01-03T02:59:33.142Z,8.10
2023-01-03T03:02:07.411Z,8.10
2023-01-03T03:04:42.779Z,8.10
2023-01-03T03:07:26.575Z,8.00
2023-01-03T03:10:17.628Z,8.00
2023-01-03T03:13:13.679Z,7.90
2023-01-03T03:16:15.093Z,8.00
2023-01-03T03:19:01.950Z,7.90
2023-01-03T03:21:55.385Z,7.90
2023-01-03T03:24:49.469Z,7.90
2023-01-03T03:27:43.397Z,8.00
2023-01-03T03:30:20.017Z,8.00
2023-01-03T03:32:57.701Z,8.00
2023-01-03T03:35:36.473Z,8.00
2023-01-03T03:38:12.599Z,8.00
2023-01-03T03:41:17.128Z,8.00
2023-01-03T03:44:16.312Z,8.00
2023-01-03T03:46:55.725Z,8.00
2023-01-03T03:49:38.155Z,8.00
2023-01-03T03:52:15.238Z,8.00
2023-01-03T03:54:55.245Z,8.00
2023-01-03T03:57:33.351Z,8.00
2023-01-03T04:00:11.215Z,8.00
2023-01-03T04:02:49.115Z,8.00
2023-01-03T04:05:24.700Z,8.00
2023-01-03T04:07:57.535Z,7.90
2023-01-03T04:10:37.189Z,8.00
2023-01-03T04:13:10.594Z,7.90
2023-01-03T04:15:43.401Z,7.90
2023-01-03T04:18:16.209Z,7.90
2023-01-03T04:20:48.894Z,7.90
2023-01-03T04:23:22.222Z,7.90
2023-01-03T04:25:56.367Z,7.90
2023-01-03T04:28:29.043Z,7.90
2023-01-03T04:31:01.867Z,7.90
2023-01-03T04:33:34.665Z,7.90
2023-01-03T04:36:07.894Z,7.90
2023-01-03T04:38:40.566Z,7.90
2023-01-03T04:41:13.280Z,7.90
2023-01-03T04:44:04.745Z,7.90
2023-01-03T04:46:39.511Z,7.90
2023-01-03T04:49:12.356Z,8.00
2023-01-03T04:51:46.167Z,7.90
2023-01-03T04:54:18.936Z,7.90
2023-01-03T04:56:51.623Z,8.00
2023-01-03T04:59:24.370Z,8.00
2023-01-03T05:01:57.350Z,8.00
2023-01-03T05:04:30.387Z,8.00
2023-01-03T05:07:03.134Z,8.00
2023-01-03T05:09:36.035Z,8.00
2023-01-03T05:12:11.995Z,8.00
2023-01-03T05:14:44.772Z,8.10
2023-01-03T05:17:21.437Z,8.10
2023-01-03T05:20:32.526Z,8.10
2023-01-03T05:23:23.922Z,8.10
2023-01-03T05:25:56.878Z,8.10
2023-01-03T05:28:29.693Z,8.10
2023-01-03T05:31:02.693Z,8.10
2023-01-03T05:33:38.236Z,8.10
2023-01-03T05:36:11.514Z,8.10
2023-01-03T05:38:44.325Z,8.10
2023-01-03T05:41:37.002Z,8.10
2023-01-03T05:44:09.706Z,8.10
2023-01-03T05:46:42.383Z,8.10
2023-01-03T05:49:15.345Z,8.10
2023-01-03T05:51:48.157Z,8.10
2023-01-03T05:54:21.347Z,8.10
2023-01-03T05:56:54.211Z,8.10
2023-01-03T05:59:27.685Z,8.10
2023-01-03T06:02:00.499Z,8.10
2023-01-03T06:04:33.303Z,8.10
2023-01-03T06:07:06.183Z,8.10
2023-01-03T06:09:38.967Z,8.10
2023-01-03T06:12:11.643Z,8.10
2023-01-03T06:14:44.481Z,8.10
2023-01-03T06:17:36.301Z,8.00
2023-01-03T06:20:09.681Z,8.10
2023-01-03T06:22:42.526Z,8.00
2023-01-03T06:25:15.330Z,7.90
2023-01-03T06:27:48.202Z,7.90
2023-01-03T06:30:21.187Z,7.90
2023-01-03T06:32:53.929Z,7.90
2023-01-03T06:35:26.697Z,7.90
2023-01-03T06:37:59.370Z,8.00
2023-01-03T06:40:38.196Z,8.00
2023-01-03T06:43:15.259Z,8.00
2023-01-03T06:46:06.490Z,8.00
2023-01-03T06:48:57.868Z,8.00
2023-01-03T06:51:50.225Z,8.00
2023-01-03T06:54:30.975Z,7.90
2023-01-03T06:57:04.324Z,7.90
2023-01-03T06:59:37.544Z,7.90
2023-01-03T07:02:10.571Z,7.90
2023-01-03T07:04:43.408Z,7.80
2023-01-03T07:07:16.233Z,7.80
2023-01-03T07:09:48.947Z,7.90
2023-01-03T07:12:40.234Z,7.80
2023-01-03T07:15:12.880Z,7.80
2023-01-03T07:17:45.597Z,7.90
2023-01-03T07:20:18.381Z,7.80
2023-01-03T07:22:52.491Z,7.80
2023-01-03T07:25:25.846Z,7.80
2023-01-03T07:28:05.363Z,7.80
2023-01-03T07:30:44.880Z,7.80
2023-01-03T07:33:18.598Z,7.80
2023-01-03T07:35:51.315Z,7.90
2023-01-03T07:38:24.119Z,7.90
2023-01-03T07:41:01.334Z,7.90
2023-01-03T07:43:38.702Z,7.90
2023-01-03T07:46:15.973Z,7.90
2023-01-03T07:48:50.935Z,7.90
2023-01-03T07:51:23.944Z,7.90
2023-01-03T07:53:56.663Z,7.80
2023-01-03T07:56:29.786Z,7.80
2023-01-03T07:59:02.792Z,7.80
2023-01-03T08:01:35.631Z,7.90
2023-01-03T08:04:08.389Z,7.90
2023-01-03T08:06:41.185Z,7.90
2023-01-03T08:09:32.434Z,7.90
2023-01-03T08:12:23.860Z,7.90
2023-01-03T08:14:56.554Z,7.90
2023-01-03T08:17:29.260Z,7.90
2023-01-03T08:20:02.377Z,7.90
2023-01-03T08:22:35.498Z,7.90
2023-01-03T08:25:09.159Z,7.90
2023-01-03T08:27:45.364Z,7.90
2023-01-03T08:30:24.273Z,7.90
2023-01-03T08:33:01.285Z,7.90
2023-01-03T08:35:38.483Z,7.90
2023-01-03T08:38:16.564Z,7.90
2023-01-03T08:40:49.408Z,7.90
2023-01-03T08:43:22.409Z,7.90
2023-01-03T08:45:55.230Z,7.90
2023-01-03T08:48:29.051Z,7.90
2023-01-03T08:51:02.715Z,7.90
2023-01-03T08:53:35.812Z,8.00
2023-01-03T08:56:08.610Z,8.00
2023-01-03T08:58:41.387Z,8.00
2023-01-03T09:01:14.603Z,8.00
2023-01-03T09:03:47.609Z,8.10
2023-01-03T09:06:20.516Z,8.10
2023-01-03T09:08:53.309Z,8.10
2023-01-03T09:11:26.047Z,8.10
2023-01-03T09:13:58.879Z,8.20
2023-01-03T09:16:31.671Z,8.20
2023-01-03T09:19:04.534Z,8.10
2023-01-03T09:21:37.273Z,8.10
2023-01-03T09:24:10.272Z,8.10
2023-01-03T09:26:43.750Z,8.10
2023-01-03T09:29:19.793Z,8.10
2023-01-03T09:31:53.563Z,8.20
2023-01-03T09:34:30.509Z,8.20
2023-01-03T09:37:04.592Z,8.20
2023-01-03T09:39:40.815Z,8.30
2023-01-03T09:42:45.094Z,8.20
2023-01-03T09:45:53.109Z,8.30
2023-01-03T10:03:51.591Z,8.30
2023-01-03T10:07:20.036Z,8.30
2023-01-03T10:10:14.282Z,8.30
2023-01-03T10:13:17.822Z,8.30
2023-01-03T10:16:13.109Z,8.30
2023-01-03T10:18:55.556Z,8.40
2023-01-03T10:22:07.735Z,8.40
2023-01-03T10:25:07.665Z,8.40
2023-01-03T10:27:52.431Z,8.40
2023-01-03T10:30:44.298Z,8.40
2023-01-03T10:33:23.364Z,8.50
2023-01-03T10:35:57.332Z,8.60
2023-01-03T10:38:32.445Z,8.60
2023-01-03T10:41:31.246Z,8.60
2023-01-03T10:44:04.826Z,8.60
2023-01-03T10:46:50.325Z,8.60
2023-01-03T10:49:28.553Z,8.60
2023-01-03T10:52:19.488Z,8.60
2023-01-03T10:55:26.376Z,8.60
2023-01-03T10:58:02.465Z,8.60
2023-01-03T11:00:38.947Z,8.60
2023-01-03T11:03:26.309Z,8.70
2023-01-03T11:06:02.250Z,8.60
2023-01-03T11:08:50.325Z,8.70
2023-01-03T11:11:33.641Z,8.70
2023-01-03T11:14:09.414Z,8.80
2023-01-03T11:17:06.029Z,8.80
2023-01-03T11:19:45.420Z,8.90
2023-01-03T11:22:45.906Z,9.00
2023-01-03T11:25:47.826Z,9.10
2023-01-03T11:28:39.155Z,9.20
2023-01-03T11:31:40.311Z,9.20
2023-01-03T11:34:48.249Z,9.20
2023-01-03T11:37:32.364Z,9.20
2023-01-03T11:40:21.825Z,9.20
2023-01-03T11:43:12.012Z,9.20
2023-01-03T11:46:12.843Z,9.10
2023-01-03T11:49:16.337Z,9.20
2023-01-03T11:52:17.635Z,9.20
2023-01-03T11:55:28.043Z,9.20
2023-01-03T11:58:06.825Z,9.20
2023-01-03T12:01:13.708Z,9.20
2023-01-03T12:04:14.749Z,9.20
2023-01-03T12:07:46.498Z,9.20
2023-01-03T12:10:27.200Z,9.20
2023-01-03T12:13:15.082Z,9.30
2023-01-03T12:15:54.002Z,9.40
2023-01-03T12:18:48.557Z,9.50
2023-01-03T12:21:42.456Z,9.50
2023-01-03T12:24:31.968Z,9.60
2023-01-03T12:27:17.554Z,9.60
2023-01-03T12:29:55.233Z,9.60
2023-01-03T12:32:53.720Z,9.60
2023-01-03T12:35:48.235Z,9.60
2023-01-03T12:38:29.333Z,9.60
2023-01-03T12:41:07.787Z,9.70
2023-01-03T12:43:53.370Z,9.70
2023-01-03T12:46:34.385Z,9.70
2023-01-03T12:49:25.708Z,9.70
2023-01-03T12:51:59.408Z,9.70
2023-01-03T12:54:51.522Z,9.70
2023-01-03T12:57:42.321Z,9.70
2023-01-03T13:00:25.619Z,9.70
2023-01-03T13:02:58.550Z,9.70
2023-01-03T13:05:49.490Z,9.70
2023-01-03T13:08:34.345Z,9.70
2023-01-03T13:11:28.245Z,9.70
2023-01-03T13:14:24.403Z,9.80
2023-01-03T13:17:06.951Z,9.90
2023-01-03T13:19:40.936Z,10.10
2023-01-03T13:22:28.238Z,10.20
2023-01-03T13:25:26.318Z,10.30
2023-01-03T13:28:08.795Z,10.30
2023-01-03T13:30:41.457Z,10.30
2023-01-03T13:33:16.528Z,10.30
2023-01-03T13:35:49.241Z,10.20
2023-01-03T13:38:35.843Z,10.00
2023-01-03T13:41:35.740Z,9.90
2023-01-03T13:44:23.834Z,9.90
2023-01-03T13:46:57.656Z,9.80
2023-01-03T13:49:53.685Z,9.80
2023-01-03T13:53:25.331Z,9.70
2023-01-03T13:56:19.599Z,9.70
2023-01-03T13:59:15.745Z,9.60
2023-01-03T14:02:02.549Z,9.60
2023-01-03T14:04:54.005Z,9.50
2023-01-03T14:08:06.103Z,9.50
2023-01-03T14:10:59.800Z,9.40
2023-01-03T14:13:41.570Z,9.40
2023-01-03T14:16:41.980Z,9.40
2023-01-03T14:19:18.788Z,9.30
2023-01-03T14:22:29.805Z,9.40
2023-01-03T14:25:05.366Z,9.40
2023-01-03T14:27:40.570Z,9.50
2023-01-03T14:30:22.655Z,9.50
2023-01-03T14:32:56.161Z,9.50
2023-01-03T14:35:36.242Z,9.40
2023-01-03T14:38:35.536Z,9.50
2023-01-03T14:41:27.149Z,9.40
2023-01-03T14:44:28.869Z,9.40
2023-01-03T14:47:05.173Z,9.40
2023-01-03T14:49:47.841Z,9.30
2023-01-03T14:52:31.280Z,9.30
2023-01-03T14:55:12.902Z,9.20
2023-01-03T14:57:47.571Z,9.20
2023-01-03T15:00:32.944Z,9.20
2023-01-03T15:03:12.483Z,9.20
2023-01-03T15:05:46.127Z,9.20
2023-01-03T15:08:26.557Z,9.10
2023-01-03T15:11:06.026Z,9.10
2023-01-03T15:13:56.113Z,9.10
2023-01-03T15:16:37.569Z,9.10
2023-01-03T15:19:20.465Z,9.00
2023-01-03T15:22:18.792Z,9.10
2023-01-03T15:25:02.820Z,9.00
2023-01-03T15:27:38.557Z,9.00
2023-01-03T15:30:22.237Z,9.00
2023-01-03T15:33:38.429Z,9.00
2023-01-03T15:36:18.975Z,9.00
2023-01-03T15:38:52.421Z,8.90
2023-01-03T15:42:12.265Z,8.90
2023-01-03T15:44:46.061Z,8.90
2023-01-03T15:47:20.770Z,8.90
2023-01-03T15:49:57.227Z,8.90
2023-01-03T15:52:34.156Z,8.90
2023-01-03T15:55:13.606Z,8.90
2023-01-03T15:57:51.568Z,8.90
2023-01-03T16:00:26.216Z,8.90
2023-01-03T16:02:59.212Z,8.80
2023-01-03T16:05:32.655Z,8.80
2023-01-03T16:08:39.994Z,8.80
2023-01-03T16:11:19.252Z,8.80
2023-01-03T16:13:57.824Z,8.80
2023-01-03T16:16:36.996Z,8.80
2023-01-03T16:19:20.011Z,8.80
2023-01-03T16:22:32.430Z,8.70
2023-01-03T16:24:49.196Z,8.70
2023-01-03T16:27:25.515Z,8.70
2023-01-03T16:29:59.598Z,8.70
2023-01-03T16:32:33.742Z,8.70
2023-01-03T16:35:17.363Z,8.70
2023-01-03T16:37:50.481Z,8.70
2023-01-03T16:40:23.557Z,8.70
2023-01-03T16:42:56.498Z,8.70
2023-01-03T16:45:30.451Z,8.70
2023-01-03T16:48:03.911Z,8.70
2023-01-03T16:50:39.944Z,8.60
2023-01-03T16:53:38.611Z,8.60
2023-01-03T16:56:12.109Z,8.50
2023-01-03T16:58:45.341Z,8.50
2023-01-03T17:01:18.257Z,8.50
2023-01-03T17:03:51.224Z,8.50
2023-01-03T17:06:37.591Z,8.40
2023-01-03T17:09:27.411Z,8.40
2023-01-03T17:12:00.210Z,8.30
2023-01-03T17:14:36.817Z,8.30
2023-01-03T17:17:19.689Z,8.30
2023-01-03T17:20:07.960Z,8.20
2023-01-03T17:22:41.093Z,8.10
2023-01-03T17:25:13.828Z,8.10
2023-01-03T17:27:52.450Z,8.00
2023-01-03T17:30:28.615Z,8.00
2023-01-03T17:33:01.503Z,8.00
2023-01-03T17:35:36.244Z,8.00
2023-01-03T17:38:25.845Z,8.00
2023-01-03T17:40:59.533Z,7.90
2023-01-03T17:43:32.271Z,7.90
2023-01-03T17:46:25.336Z,7.90
2023-01-03T17:49:16.872Z,7.90
2023-01-03T17:52:12.028Z,7.80
2023-01-03T17:54:45.046Z,7.80
2023-01-03T17:57:18.236Z,7.70
2023-01-03T17:59:51.153Z,7.70
2023-01-03T18:02:26.057Z,7.70
2023-01-03T18:05:16.481Z,7.70
2023-01-03T18:07:52.103Z,7.70
2023-01-03T18:10:43.864Z,7.70
2023-01-03T18:13:23.267Z,7.70
2023-01-03T18:15:57.425Z,7.70
2023-01-03T18:18:31.962Z,7.80
2023-01-03T18:21:11.035Z,7.80
2023-01-03T18:23:45.170Z,7.80
2023-01-03T18:26:18.350Z,7.80
2023-01-03T18:28:51.843Z,7.80
2023-01-03T18:31:26.129Z,7.80
2023-01-03T18:34:03.964Z,7.80
2023-01-03T18:36:43.115Z,7.80
2023-01-03T18:39:26.043Z,7.80
2023-01-03T18:42:20.012Z,7.80
2023-01-03T18:44:53.897Z,7.90
2023-01-03T18:47:27.958Z,7.90
2023-01-03T18:50:01.718Z,7.90
2023-01-03T18:52:41.544Z,7.80
2023-01-03T18:55:23.954Z,7.90
2023-01-03T18:58:00.517Z,7.90
2023-01-03T19:00:34.328Z,7.90
2023-01-03T19:03:24.988Z,7.80
2023-01-03T19:06:00.157Z,7.80
2023-01-03T19:08:34.389Z,7.80
2023-01-03T19:11:15.839Z,7.80
2023-01-03T19:13:51.618Z,7.80
2023-01-03T19:16:34.541Z,7.70
2023-01-03T19:19:08.607Z,7.70
2023-01-03T19:21:45.493Z,7.60
2023-01-03T19:24:34.614Z,7.60
2023-01-03T19:27:16.910Z,7.60
2023-01-03T19:29:52.127Z,7.60
2023-01-03T19:32:29.636Z,7.60
2023-01-03T19:35:03.715Z,7.60
2023-01-03T19:37:37.699Z,7.60
2023-01-03T19:40:12.809Z,7.60
2023-01-03T19:42:56.862Z,7.60
2023-01-03T19:45:41.200Z,7.60
2023-01-03T19:48:20.128Z,7.60
2023-01-03T19:50:52.995Z,7.60
2023-01-03T19:53:25.863Z,7.60
2023-01-03T19:55:59.257Z,7.70
2023-01-03T19:58:39.145Z,7.70
2023-01-03T20:01:17.321Z,7.70
2023-01-03T20:03:50.808Z,7.70
2023-01-03T20:06:23.927Z,7.70
2023-01-03T20:08:56.786Z,7.60
2023-01-03T20:11:29.559Z,7.60
2023-01-03T20:14:06.335Z,7.60
2023-01-03T20:16:39.087Z,7.60
2023-01-03T20:19:17.716Z,7.50
2023-01-03T20:21:51.378Z,7.50
2023-01-03T20:24:29.428Z,7.50
2023-01-03T20:27:02.163Z,7.50
2023-01-03T20:29:34.986Z,7.40
2023-01-03T20:32:08.256Z,7.50
2023-01-03T20:34:41.088Z,7.50
2023-01-03T20:37:18.155Z,7.40
2023-01-03T20:39:51.898Z,7.40
2023-01-03T20:42:24.839Z,7.40
2023-01-03T20:44:57.756Z,7.40
2023-01-03T20:47:30.514Z,7.40
2023-01-03T20:50:04.647Z,7.40
2023-01-03T20:52:37.438Z,7.30
2023-01-03T20:55:16.891Z,7.30
2023-01-03T20:57:50.314Z,7.30
2023-01-03T21:00:30.619Z,7.30
2023-01-03T21:03:03.708Z,7.20
2023-01-03T21:05:37.438Z,7.20
2023-01-03T21:08:34.858Z,7.20
2023-01-03T21:11:07.576Z,7.20
2023-01-03T21:13:40.487Z,7.10
2023-01-03T21:16:30.414Z,7.10
2023-01-03T21:19:23.332Z,7.10
2023-01-03T21:21:58.207Z,7.10
2023-01-03T21:24:35.594Z,7.10
2023-01-03T21:27:11.443Z,7.10
2023-01-03T21:29:44.081Z,7.10
2023-01-03T21:32:17.074Z,7.20
2023-01-03T21:34:49.820Z,7.20
2023-01-03T21:37:22.481Z,7.20
2023-01-03T21:39:55.149Z,7.20
2023-01-03T21:42:46.429Z,7.10
2023-01-03T21:45:19.373Z,7.10
2023-01-03T21:47:52.539Z,7.10
2023-01-03T21:50:26.162Z,7.10
2023-01-03T21:52:59.292Z,7.10
2023-01-03T21:55:32.385Z,7.00
2023-01-03T21:58:05.119Z,7.00
2023-01-03T22:00:37.876Z,7.00
2023-01-03T22:03:30.317Z,7.00
2023-01-03T22:06:12.772Z,7.00
2023-01-03T22:08:45.664Z,6.90
2023-01-03T22:11:19.544Z,6.90
2023-01-03T22:13:55.943Z,6.90
2023-01-03T22:16:29.012Z,6.90
2023-01-03T22:19:01.776Z,6.90
2023-01-03T22:21:34.661Z,6.90
2023-01-03T22:24:07.779Z,6.90
2023-01-03T22:26:40.785Z,6.90
2023-01-03T22:29:13.524Z,6.90
2023-01-03T22:31:46.978Z,6.90
2023-01-03T22:34:19.732Z,6.90
2023-01-03T22:36:52.533Z,6.90
2023-01-03T22:39:25.232Z,6.90
2023-01-03T22:41:57.953Z,6.90
2023-01-03T22:44:30.723Z,6.90
2023-01-03T22:47:04.554Z,6.90
2023-01-03T22:49:37.442Z,6.90
2023-01-03T22:52:10.580Z,6.90
2023-01-03T22:54:43.289Z,6.90
2023-01-03T22:57:16.001Z,6.90
2023-01-03T22:59:48.707Z,6.90
2023-01-03T23:02:28.084Z,7.00
2023-01-03T23:05:01.758Z,6.90
2023-01-03T23:07:34.454Z,6.90
2023-01-03T23:10:08.144Z,6.90
2023-01-03T23:12:58.888Z,6.90
2023-01-03T23:15:32.196Z,6.90
2023-01-03T23:18:04.956Z,6.90
2023-01-03T23:20:49.099Z,6.90
2023-01-03T23:23:22.057Z,7.00
2023-01-03T23:25:54.931Z,7.00
2023-01-03T23:28:28.263Z,7.00
2023-01-03T23:31:04.634Z,7.00
2023-01-03T23:33:37.568Z,7.00
2023-01-03T23:36:13.111Z,7.00
2023-01-03T23:38:45.882Z,7.00
2023-01-03T23:41:19.676Z,7.00
2023-01-03T23:43:54.438Z,7.00
2023-01-03T23:46:27.168Z,7.00
2023-01-03T23:49:00.212Z,7.10
2023-01-03T23:51:32.930Z,7.10
2023-01-03T23:54:05.755Z,7.10
2023-01-03T23:56:38.473Z,7.10
2023-01-03T23:59:11.231Z,7.10
